Time;durP1;ratioP1;P1;durP2;ratioP2;P2;SDS_P1;SDS_P2;PMS_P1;PMS_P2;Temp;Humidity;BMP_temperature;BMP_pressure;BME280_temperature;BME280_humidity;BME280_pressure;Samples;Min_cycle;Max_cycle;Signal;HPM_P1;HPM_P2
2023/10/26 00:09:35;;;;;;;16.63;6.20;;;;;;;20.86;100.00;100959.53;21012956;28;20055;-75
2023/10/26 00:19:59;;;;;;;16.00;6.70;;;;;;;20.95;100.00;100957.50;21035147;28;20122;-74
2023/10/26 00:30:22;;;;;;;17.52;7.55;;;;;;;20.91;100.00;100937.03;20963815;28;20048;-76
2023/10/26 00:40:46;;;;;;;23.15;7.25;;;;;;;20.81;100.00;100931.91;21034868;28;20565;-75
2023/10/26 00:51:08;;;;;;;19.23;7.75;;;;;;;20.80;100.00;100930.16;21020846;28;20052;-74
2023/10/26 01:01:34;;;;;;;19.25;7.72;;;;;;;20.82;100.00;100920.25;20958109;28;20491;-75
2023/10/26 01:11:57;;;;;;;19.65;7.50;;;;;;;20.87;100.00;100919.22;20948315;28;20049;-75
2023/10/26 01:22:21;;;;;;;23.45;6.88;;;;;;;20.80;100.00;100912.25;20837763;28;20088;-74
2023/10/26 01:32:44;;;;;;;19.83;6.88;;;;;;;20.76;100.00;100907.88;21020365;28;20048;-74
2023/10/26 01:43:08;;;;;;;18.75;7.35;;;;;;;20.67;100.00;100908.09;21005197;28;20052;-76
2023/10/26 01:53:30;;;;;;;22.20;7.80;;;;;;;20.46;100.00;100916.63;20968209;28;20103;-74
2023/10/26 02:03:54;;;;;;;19.30;6.03;;;;;;;20.49;100.00;100911.19;20947657;28;20097;-74
2023/10/26 02:14:17;;;;;;;21.00;7.10;;;;;;;20.46;100.00;100909.47;20974308;28;20049;-74
2023/10/26 02:24:41;;;;;;;17.60;7.63;;;;;;;20.21;100.00;100898.38;21000622;28;20058;-75
2023/10/26 02:35:04;;;;;;;16.35;6.35;;;;;;;20.21;100.00;100892.13;20918042;28;20055;-75
2023/10/26 02:45:28;;;;;;;22.38;8.35;;;;;;;20.32;100.00;100908.84;20999932;28;20071;-75
2023/10/26 02:55:51;;;;;;;15.70;6.90;;;;;;;20.42;100.00;100897.03;20871809;28;20048;-75
2023/10/26 03:06:15;;;;;;;16.27;7.22;;;;;;;20.50;100.00;100894.19;21011431;28;20139;-75
2023/10/26 03:16:38;;;;;;;17.15;6.20;;;;;;;20.47;100.00;100875.50;20956119;28;20489;-75
2023/10/26 03:27:02;;;;;;;16.05;6.90;;;;;;;20.54;100.00;100887.84;20870295;28;20497;-75
2023/10/26 03:37:24;;;;;;;20.48;8.10;;;;;;;20.53;100.00;100894.13;20925221;28;20062;-74
2023/10/26 03:47:49;;;;;;;20.27;7.40;;;;;;;20.65;100.00;100885.78;20989886;28;20153;-75
2023/10/26 03:58:14;;;;;;;18.90;7.38;;;;;;;20.72;100.00;100892.78;20995683;28;20051;-76
2023/10/26 04:08:38;;;;;;;17.30;7.10;;;;;;;20.81;100.00;100897.91;20993775;28;20152;-76
2023/10/26 04:19:00;;;;;;;16.73;7.30;;;;;;;20.90;100.00;100899.47;20908878;28;20447;-76
2023/10/26 04:29:24;;;;;;;16.23;7.07;;;;;;;21.01;100.00;100894.72;21007218;28;20139;-75
2023/10/26 04:39:47;;;;;;;15.63;8.15;;;;;;;21.13;100.00;100882.81;21007836;28;20072;-75
2023/10/26 04:50:12;;;;;;;17.88;7.38;;;;;;;21.36;100.00;100867.00;20984973;28;20091;-75
2023/10/26 05:00:35;;;;;;;13.68;6.38;;;;;;;21.60;100.00;100850.19;21001707;28;20071;-75
2023/10/26 05:11:00;;;;;;;17.75;6.55;;;;;;;21.84;100.00;100824.44;21021995;28;20140;-74
2023/10/26 05:21:23;;;;;;;17.13;6.13;;;;;;;22.19;100.00;100828.75;20987605;28;20440;-75
2023/10/26 05:31:47;;;;;;;14.45;5.53;;;;;;;22.59;100.00;100834.63;21004751;28;20056;-76
2023/10/26 05:42:10;;;;;;;25.00;7.30;;;;;;;22.73;100.00;100827.94;20914021;28;20052;-75
2023/10/26 05:52:35;;;;;;;14.38;5.82;;;;;;;22.74;100.00;100835.97;20981462;28;20045;-74
2023/10/26 06:02:57;;;;;;;17.10;6.85;;;;;;;22.99;100.00;100834.19;20994225;28;20076;-74
2023/10/26 06:13:22;;;;;;;16.20;6.38;;;;;;;23.15;100.00;100834.56;20978477;28;20053;-74
2023/10/26 06:23:44;;;;;;;23.15;6.45;;;;;;;23.25;100.00;100827.91;20988862;28;20380;-75
2023/10/26 06:34:08;;;;;;;21.40;7.05;;;;;;;23.16;100.00;100847.09;20891701;28;20562;-74
2023/10/26 06:44:31;;;;;;;20.50;7.15;;;;;;;23.14;100.00;100842.69;20851848;28;20574;-73
2023/10/26 06:54:55;;;;;;;21.83;6.05;;;;;;;23.64;100.00;100844.47;20913932;28;20048;-74
2023/10/26 07:05:18;;;;;;;14.13;5.63;;;;;;;24.13;100.00;100856.13;20883637;28;20064;-74
2023/10/26 07:15:42;;;;;;;20.00;6.70;;;;;;;24.17;100.00;100869.41;20883404;28;20521;-74
2023/10/26 07:26:04;;;;;;;15.50;4.97;;;;;;;24.34;100.00;100879.59;20859050;28;20100;-74
2023/10/26 07:36:30;;;;;;;18.40;5.18;;;;;;;24.80;100.00;100877.75;20839728;28;20460;-73
2023/10/26 07:46:52;;;;;;;21.00;5.43;;;;;;;25.11;100.00;100866.56;20854186;28;20053;-73
2023/10/26 07:57:19;;;;;;;12.93;4.82;;;;;;;25.62;100.00;100860.72;20872119;28;20045;-74
2023/10/26 08:07:42;;;;;;;16.33;4.47;;;;;;;26.14;100.00;100865.50;20896274;28;20053;-73
2023/10/26 08:18:07;;;;;;;19.13;4.35;;;;;;;26.17;100.00;100861.78;20879504;28;20291;-72
2023/10/26 08:28:29;;;;;;;12.68;4.65;;;;;;;26.33;100.00;100883.59;20871374;28;20045;-73
2023/10/26 08:38:53;;;;;;;17.65;4.75;;;;;;;26.38;100.00;100893.28;20887825;28;20045;-72
2023/10/26 08:49:17;;;;;;;16.67;5.13;;;;;;;26.78;100.00;100877.81;20908996;28;20127;-73
2023/10/26 08:59:42;;;;;;;15.93;4.50;;;;;;;26.97;100.00;100865.13;20865530;28;20139;-73
2023/10/26 09:10:06;;;;;;;20.90;4.95;;;;;;;26.41;100.00;100879.59;20852487;28;20562;-73
2023/10/26 09:20:30;;;;;;;10.68;3.65;;;;;;;27.01;100.00;100882.97;20857972;28;20501;-73
2023/10/26 09:30:58;;;;;;;9.73;3.58;;;;;;;27.42;100.00;100907.97;20823117;28;20054;-72
2023/10/26 09:41:23;;;;;;;19.85;5.45;;;;;;;26.99;100.00;100939.06;20905993;28;20080;-73
2023/10/26 09:51:46;;;;;;;12.25;4.43;;;;;;;26.63;100.00;100924.59;20878882;28;20045;-72
2023/10/26 10:02:17;;;;;;;14.20;4.53;;;;;;;26.40;100.00;100920.25;20896719;28;20049;-72
2023/10/26 10:12:42;;;;;;;14.40;4.40;;;;;;;26.29;100.00;100911.78;20882519;28;20504;-72
2023/10/26 10:23:06;;;;;;;11.50;4.18;;;;;;;26.37;100.00;100896.06;20853074;28;20140;-73
2023/10/26 10:33:29;;;;;;;14.80;4.05;;;;;;;26.27;100.00;100892.00;20894585;28;20300;-73
2023/10/26 10:43:59;;;;;;;10.95;3.65;;;;;;;26.36;100.00;100897.88;20883179;28;20471;-73
2023/10/26 10:54:23;;;;;;;13.73;4.70;;;;;;;26.18;100.00;100885.19;20863773;28;20053;-73
2023/10/26 11:04:56;;;;;;;12.98;4.50;;;;;;;26.20;100.00;100892.25;20884887;28;20045;-72
2023/10/26 11:15:19;;;;;;;15.02;4.28;;;;;;;26.31;99.49;100897.22;20896846;28;20404;-74
2023/10/26 11:25:45;;;;;;;11.30;4.30;;;;;;;26.43;92.37;100895.75;20876880;28;20599;-72
2023/10/26 11:36:11;;;;;;;9.23;3.00;;;;;;;26.34;88.25;100893.47;20855276;28;20045;-72
2023/10/26 11:46:37;;;;;;;14.38;4.90;;;;;;;26.27;88.69;100900.13;20901084;28;20044;-72
2023/10/26 11:56:59;;;;;;;13.02;4.07;;;;;;;26.26;81.69;100895.66;20850906;28;20511;-73
2023/10/26 12:07:24;;;;;;;17.20;3.72;;;;;;;26.44;82.31;100898.41;20862331;28;20049;-72
2023/10/26 12:17:47;;;;;;;12.45;3.45;;;;;;;26.47;75.70;100900.94;20906613;28;20033;-72
2023/10/26 12:28:12;;;;;;;9.95;3.10;;;;;;;26.49;74.43;100892.75;20875229;28;20045;-73
2023/10/26 12:38:35;;;;;;;10.35;3.10;;;;;;;26.66;76.76;100900.94;20873997;28;20432;-73
2023/10/26 12:49:00;;;;;;;14.60;3.45;;;;;;;26.88;80.20;100915.19;20865222;28;20072;-73
2023/10/26 12:59:22;;;;;;;20.05;3.53;;;;;;;26.91;71.99;100887.97;20862386;28;20106;-74
2023/10/26 13:09:46;;;;;;;18.80;3.72;;;;;;;26.73;62.24;100894.25;20877376;28;20052;-73
2023/10/26 13:20:11;;;;;;;20.35;4.07;;;;;;;26.74;58.56;100874.34;20869054;28;20076;-74
2023/10/26 13:30:35;;;;;;;17.58;3.85;;;;;;;26.65;55.36;100871.22;20839884;28;20057;-73
2023/10/26 13:40:58;;;;;;;23.48;4.25;;;;;;;26.51;55.65;100842.13;20896875;28;20445;-73
2023/10/26 13:51:22;;;;;;;16.88;3.70;;;;;;;26.32;56.37;100823.16;20935209;28;20130;-73
2023/10/26 14:01:44;;;;;;;24.88;4.40;;;;;;;26.20;56.58;100789.41;21017399;28;20101;-74
2023/10/26 14:12:09;;;;;;;15.23;4.07;;;;;;;25.97;55.62;100694.06;20939985;28;20053;-73
2023/10/26 14:22:32;;;;;;;24.00;3.83;;;;;;;25.72;55.17;100665.50;20968364;28;20048;-74
2023/10/26 14:32:56;;;;;;;19.02;3.67;;;;;;;25.71;53.18;100631.31;21015681;28;20060;-73
2023/10/26 14:43:19;;;;;;;20.10;4.35;;;;;;;25.76;52.61;100640.06;20961838;28;20689;-73
2023/10/26 14:53:44;;;;;;;20.77;3.85;;;;;;;25.72;51.36;100643.88;20821393;28;20045;-73
2023/10/26 15:04:10;;;;;;;11.32;3.80;;;;;;;25.61;51.57;100672.38;20944884;28;20118;-73
2023/10/26 15:14:35;;;;;;;19.52;3.30;;;;;;;25.47;51.54;100659.47;20948637;28;20068;-73
2023/10/26 15:24:58;;;;;;;18.08;3.65;;;;;;;25.21;52.33;100676.03;20958711;28;20106;-72
2023/10/26 15:35:22;;;;;;;15.05;4.57;;;;;;;24.86;98.85;100708.22;20920528;28;20051;-73
2023/10/26 15:45:49;;;;;;;16.80;4.75;;;;;;;24.49;100.00;100725.09;20973188;28;20056;-73
2023/10/26 15:56:13;;;;;;;13.45;5.80;;;;;;;24.23;100.00;100720.81;20877146;28;20099;-72
2023/10/26 16:06:36;;;;;;;16.70;5.63;;;;;;;24.02;100.00;100736.97;20890519;28;20500;-72
2023/10/26 16:17:01;;;;;;;14.55;5.93;;;;;;;23.86;100.00;100752.00;20868538;28;20099;-72
2023/10/26 16:27:23;;;;;;;17.65;5.45;;;;;;;23.70;100.00;100757.97;20864338;28;20115;-72
2023/10/26 16:37:48;;;;;;;16.35;5.50;;;;;;;23.58;100.00;100762.97;20846284;28;20049;-73
2023/10/26 16:48:10;;;;;;;15.90;6.00;;;;;;;23.44;100.00;100777.78;20873677;28;20056;-73
2023/10/26 16:58:35;;;;;;;15.07;5.82;;;;;;;23.33;100.00;100784.53;20875525;28;20049;-73
2023/10/26 17:08:57;;;;;;;12.73;5.47;;;;;;;23.19;100.00;100785.03;20887055;28;20041;-73
2023/10/26 17:19:22;;;;;;;16.75;6.10;;;;;;;23.11;100.00;100791.59;20923159;28;20059;-74
2023/10/26 17:29:47;;;;;;;16.60;6.57;;;;;;;23.02;100.00;100812.56;20885439;28;20037;-72
2023/10/26 17:40:13;;;;;;;14.63;5.75;;;;;;;22.98;100.00;100799.25;20911282;28;20045;-74
2023/10/26 17:50:39;;;;;;;15.52;6.32;;;;;;;22.95;100.00;100786.78;20878961;28;20047;-73
2023/10/26 18:01:08;;;;;;;14.55;6.47;;;;;;;22.80;100.00;100770.25;20843679;28;20045;-74
2023/10/26 18:11:31;;;;;;;11.02;6.63;;;;;;;22.59;100.00;100769.16;20897678;28;20103;-74
2023/10/26 18:21:55;;;;;;;14.82;6.25;;;;;;;22.46;100.00;100770.50;20898118;28;20105;-73
2023/10/26 18:32:17;;;;;;;12.10;5.82;;;;;;;22.37;100.00;100763.63;20972048;28;20136;-76
2023/10/26 18:42:42;;;;;;;13.07;5.57;;;;;;;22.32;100.00;100791.59;20996904;28;20049;-77
2023/10/26 18:53:05;;;;;;;9.18;5.63;;;;;;;22.30;100.00;100782.69;20957431;28;20052;-75
2023/10/26 19:03:29;;;;;;;8.63;4.80;;;;;;;22.30;100.00;100777.31;20965412;28;20052;-76
2023/10/26 19:13:51;;;;;;;12.07;4.95;;;;;;;22.33;100.00;100785.28;20881689;28;20110;-76
2023/10/26 19:24:15;;;;;;;13.52;5.88;;;;;;;22.43;100.00;100800.19;20876545;28;20130;-74
2023/10/26 19:34:38;;;;;;;9.68;4.95;;;;;;;22.43;100.00;100789.44;20879837;28;20046;-73
2023/10/26 19:45:02;;;;;;;10.90;5.63;;;;;;;22.40;100.00;100792.22;20832862;28;20059;-73
2023/10/26 19:55:27;;;;;;;9.35;5.07;;;;;;;22.36;100.00;100810.28;20913394;28;20045;-73
2023/10/26 20:05:52;;;;;;;11.57;6.00;;;;;;;22.30;100.00;100812.28;20894036;28;20044;-74
2023/10/26 20:16:15;;;;;;;13.13;5.68;;;;;;;22.33;100.00;100806.78;20931734;28;20060;-74
2023/10/26 20:26:41;;;;;;;12.35;5.78;;;;;;;22.46;100.00;100792.91;20885347;28;20044;-73
2023/10/26 20:37:04;;;;;;;12.88;6.20;;;;;;;22.45;100.00;100769.59;20876019;28;20045;-74
2023/10/26 20:47:29;;;;;;;8.93;6.00;;;;;;;22.39;100.00;100766.25;20906369;28;20045;-73
2023/10/26 20:57:52;;;;;;;12.52;5.43;;;;;;;22.34;100.00;100757.44;20943871;28;20432;-74
2023/10/26 21:08:17;;;;;;;11.52;5.20;;;;;;;22.30;100.00;100756.69;20881067;28;20049;-74
2023/10/26 21:18:45;;;;;;;12.23;5.38;;;;;;;22.31;100.00;100725.28;20909147;28;20053;-73
2023/10/26 21:29:10;;;;;;;12.57;6.45;;;;;;;22.34;100.00;100728.75;20900644;28;20049;-74
2023/10/26 21:39:32;;;;;;;13.73;6.07;;;;;;;22.32;100.00;100710.91;20980310;28;20048;-73
2023/10/26 21:49:56;;;;;;;13.27;5.68;;;;;;;22.31;100.00;100746.81;20946785;28;20096;-74
2023/10/26 22:00:23;;;;;;;15.07;6.00;;;;;;;22.35;100.00;100759.22;20893515;28;20053;-74
2023/10/26 22:10:47;;;;;;;12.23;6.78;;;;;;;22.35;100.00;100743.06;20936963;28;20087;-74
2023/10/26 22:21:10;;;;;;;20.08;6.88;;;;;;;22.32;100.00;100706.38;21016486;28;20048;-74
2023/10/26 22:31:34;;;;;;;15.13;6.38;;;;;;;22.24;100.00;100682.47;20995215;28;20110;-74
2023/10/26 22:41:57;;;;;;;14.15;7.28;;;;;;;22.20;100.00;100699.59;20917677;28;20098;-73
2023/10/26 22:52:21;;;;;;;17.17;6.55;;;;;;;22.22;100.00;100697.75;20940930;28;20538;-75
2023/10/26 23:02:44;;;;;;;18.05;7.10;;;;;;;22.23;100.00;100706.69;20918332;28;20056;-73
2023/10/26 23:13:11;;;;;;;17.40;7.05;;;;;;;22.25;100.00;100684.19;20928171;28;20043;-74
2023/10/26 23:23:38;;;;;;;21.75;7.03;;;;;;;22.22;100.00;100684.31;20996245;28;20052;-74
2023/10/26 23:34:02;;;;;;;19.23;7.05;;;;;;;22.23;100.00;100688.75;21009960;28;20048;-73
2023/10/26 23:44:24;;;;;;;21.33;6.95;;;;;;;22.24;100.00;100692.34;20988496;28;20106;-75
2023/10/26 23:54:49;;;;;;;24.48;7.40;;;;;;;22.22;100.00;100687.00;20981056;28;20090;-74
